Leesburg, Indiana
Current Conditions -  °F | °C
As of 5:35 PM on Friday 24 Oct 2014 (Local Time) from KASW Reporting Station
Scattered Clouds Scattered Clouds  
Wind Chill: 63°   Ceiling: Unl
Heat Index: 63°   Visibility: 10mi
Dew Point: 52°   Wind: 7mph
Humidity: 68%   Direction: 240°WSW
Pressure: 29.99"   Gusts: NA
Location:  41.33°N, 85.85°W
Report Text: KASW 242135Z AUTO 24006KT 10SM SCT037 17/11 A2999 RMK AO2
Loading
Personal Weather Stations






























Interactive Weather Map
Tropical Storm Tracking
New forecast layout! Learn more

10-Day Weather Forecast

Advertisements
Track Severe Weather on mobile